Time;durP1;ratioP1;P1;durP2;ratioP2;P2;SDS_P1;SDS_P2;PMS_P1;PMS_P2;Temp;Humidity;BMP_temperature;BMP_pressure;BME280_temperature;BME280_humidity;BME280_pressure;Samples;Min_cycle;Max_cycle;Signal;HPM_P1;HPM_P2
2022/05/25 00:00:18;;;;;;;8.60;5.85;;;;;;;8.82;100.00;101078.69;5077297;28;20032;-86
2022/05/25 00:02:47;;;;;;;12.00;6.30;;;;;;;8.77;100.00;101079.28;5094215;28;20035;-86
2022/05/25 00:05:14;;;;;;;8.43;6.33;;;;;;;8.77;100.00;101082.00;5094044;28;20024;-86
2022/05/25 00:07:42;;;;;;;9.63;6.53;;;;;;;8.81;100.00;101085.13;5094951;28;20036;-86
2022/05/25 00:10:08;;;;;;;9.43;6.47;;;;;;;8.84;100.00;101097.41;5095196;28;20028;-86
2022/05/25 00:12:36;;;;;;;10.25;6.93;;;;;;;8.77;100.00;101087.41;5094971;28;20031;-86
2022/05/25 00:15:02;;;;;;;9.73;6.97;;;;;;;8.77;100.00;101086.56;5092793;28;20065;-86
2022/05/25 00:17:28;;;;;;;11.07;6.50;;;;;;;8.73;100.00;101079.88;5093861;28;20032;-86
2022/05/25 00:19:59;;;;;;;12.43;6.88;;;;;;;8.81;100.00;101101.34;5093729;28;20383;-85
2022/05/25 00:22:39;;;;;;;9.48;6.82;;;;;;;8.68;100.00;101090.44;5077591;28;20114;-86
2022/05/25 00:25:06;;;;;;;14.63;6.83;;;;;;;8.66;100.00;101087.09;5078067;28;20490;-86
2022/05/25 00:27:34;;;;;;;10.63;7.38;;;;;;;8.69;100.00;101103.75;5093425;28;20020;-85
2022/05/25 00:30:04;;;;;;;13.68;7.35;;;;;;;8.66;100.00;101096.06;5093250;28;20040;-87
2022/05/25 00:32:32;;;;;;;10.40;7.57;;;;;;;8.64;100.00;101102.72;5093347;28;20084;-86
2022/05/25 00:34:58;;;;;;;12.60;7.78;;;;;;;8.54;100.00;101093.03;5094363;28;20062;-86
2022/05/25 00:37:23;;;;;;;14.53;8.40;;;;;;;8.64;100.00;101106.25;5092593;28;20383;-88
2022/05/25 00:39:49;;;;;;;13.10;7.47;;;;;;;8.50;100.00;101086.34;5094103;28;20036;-86
2022/05/25 00:42:20;;;;;;;11.13;7.67;;;;;;;8.48;100.00;101090.31;5093814;28;20387;-86
2022/05/25 00:44:46;;;;;;;17.77;8.20;;;;;;;8.45;100.00;101088.00;5093593;28;20453;-86
2022/05/25 00:47:18;;;;;;;14.10;8.50;;;;;;;8.53;100.00;101109.47;5092895;28;20032;-86
2022/05/25 00:49:44;;;;;;;17.20;8.82;;;;;;;8.46;100.00;101092.34;5094518;28;20028;-86
2022/05/25 00:52:13;;;;;;;13.37;8.50;;;;;;;8.55;100.00;101116.38;5094293;28;20210;-86
2022/05/25 00:54:47;;;;;;;15.63;8.65;;;;;;;8.53;100.00;101121.16;5093038;28;20024;-86
2022/05/25 00:57:21;;;;;;;18.57;8.97;;;;;;;8.42;100.00;101108.09;5094280;28;20081;-85
2022/05/25 01:00:04;;;;;;;19.20;9.65;;;;;;;8.51;100.00;101119.66;5093069;28;20024;-86
2022/05/25 01:02:37;;;;;;;13.98;9.55;;;;;;;8.48;100.00;101122.75;5092994;28;20077;-86
2022/05/25 01:05:12;;;;;;;14.43;9.52;;;;;;;8.39;100.00;101111.19;5093481;28;20016;-86
2022/05/25 01:08:26;;;;;;;13.10;9.18;;;;;;;8.46;100.00;101128.34;5092457;28;20047;-86
2022/05/25 01:10:57;;;;;;;15.60;9.60;;;;;;;8.44;100.00;101130.41;5084282;28;20032;-86
2022/05/25 01:13:58;;;;;;;14.80;9.35;;;;;;;8.35;100.00;101118.84;5093996;28;20039;-86
2022/05/25 01:16:54;;;;;;;14.48;9.02;;;;;;;8.31;100.00;101114.03;5066597;28;20520;-86
2022/05/25 01:19:31;;;;;;;18.45;8.77;;;;;;;8.38;100.00;101133.84;5093089;28;20032;-85
2022/05/25 01:22:13;;;;;;;12.20;8.90;;;;;;;8.28;100.00;101122.53;5092508;28;20028;-85
2022/05/25 01:25:03;;;;;;;14.23;9.27;;;;;;;8.32;100.00;101127.34;5092694;28;20098;-86
2022/05/25 01:27:47;;;;;;;13.18;9.60;;;;;;;8.24;100.00;101128.31;5092576;28;20035;-86
2022/05/25 01:30:23;;;;;;;15.10;9.38;;;;;;;8.27;100.00;101132.53;5092700;28;20028;-85
2022/05/25 01:33:00;;;;;;;15.32;9.50;;;;;;;8.25;100.00;101131.84;5092628;28;20024;-85
2022/05/25 01:35:37;;;;;;;13.27;8.88;;;;;;;8.24;100.00;101133.72;5091562;28;20139;-90
2022/05/25 01:38:30;;;;;;;15.10;9.93;;;;;;;8.20;100.00;101126.19;5092464;28;20052;-85
2022/05/25 01:41:17;;;;;;;17.15;9.50;;;;;;;8.22;100.00;101133.09;5093641;28;20021;-86
2022/05/25 01:43:57;;;;;;;13.52;9.73;;;;;;;8.16;100.00;101128.44;5092165;28;20384;-86
2022/05/25 01:46:31;;;;;;;15.70;10.38;;;;;;;8.19;100.00;101138.91;5092686;28;20020;-85
2022/05/25 01:48:58;;;;;;;17.23;10.20;;;;;;;8.12;100.00;101124.47;5092300;28;20035;-85
2022/05/25 01:51:45;;;;;;;19.07;10.60;;;;;;;8.19;100.00;101132.63;5093623;28;20476;-85
2022/05/25 01:54:14;;;;;;;15.05;10.15;;;;;;;8.12;100.00;101129.03;5092282;28;20028;-86
2022/05/25 01:56:47;;;;;;;16.50;10.23;;;;;;;8.12;100.00;101129.03;5092374;28;20088;-85
2022/05/25 01:59:15;;;;;;;18.92;10.05;;;;;;;8.08;100.00;101133.97;5092350;28;20119;-86
2022/05/25 02:05:00;;;;;;;15.23;9.87;;;;;;;8.13;100.00;101136.94;5038397;28;20045;-86
2022/05/25 02:07:52;;;;;;;15.07;9.88;;;;;;;8.15;100.00;101147.56;5091737;28;20028;-85
2022/05/25 02:10:34;;;;;;;18.20;11.07;;;;;;;8.15;100.00;101148.41;5092274;28;20118;-86
2022/05/25 02:13:26;;;;;;;15.90;10.65;;;;;;;8.08;100.00;101125.88;5092295;28;20619;-85
2022/05/25 02:15:52;;;;;;;13.20;9.73;;;;;;;8.15;100.00;101145.72;5093316;28;20033;-86
2022/05/25 02:18:58;;;;;;;16.83;10.17;;;;;;;8.03;100.00;101133.72;5093515;28;20038;-85
2022/05/25 02:21:48;;;;;;;13.63;9.48;;;;;;;8.11;100.00;101143.59;5091985;28;20162;-85
2022/05/25 02:24:29;;;;;;;13.38;9.63;;;;;;;8.08;100.00;101150.19;5092751;28;20077;-85
2022/05/25 02:27:03;;;;;;;18.23;10.30;;;;;;;8.03;100.00;101148.06;5093380;28;20032;-85
2022/05/25 02:29:44;;;;;;;14.10;9.68;;;;;;;7.96;100.00;101136.34;5091916;28;20115;-85
2022/05/25 02:32:17;;;;;;;16.50;10.40;;;;;;;8.02;100.00;101156.38;5091830;28;20027;-86
2022/05/25 02:34:48;;;;;;;14.90;9.82;;;;;;;7.89;100.00;101135.44;5092277;28;20111;-85
2022/05/25 02:37:15;;;;;;;14.98;9.60;;;;;;;7.94;100.00;101151.06;5091692;28;20032;-86
2022/05/25 02:39:42;;;;;;;13.80;10.10;;;;;;;7.84;100.00;101143.25;5094872;28;20048;-85
2022/05/25 02:42:13;;;;;;;17.00;9.75;;;;;;;7.86;100.00;101152.84;5096910;28;20474;-86
2022/05/25 02:44:41;;;;;;;16.67;9.98;;;;;;;7.89;100.00;101162.47;5095637;28;20031;-85
2022/05/25 02:47:08;;;;;;;17.35;9.93;;;;;;;7.80;100.00;101148.22;5096647;28;20403;-85
2022/05/25 02:49:34;;;;;;;14.80;9.88;;;;;;;7.78;100.00;101149.44;5095440;28;20067;-86
2022/05/25 02:51:59;;;;;;;13.50;8.80;;;;;;;7.77;100.00;101158.59;5095448;28;20551;-86
2022/05/25 02:54:25;;;;;;;16.40;9.47;;;;;;;7.83;100.00;101160.53;5096805;28;20499;-85
2022/05/25 02:56:50;;;;;;;18.15;9.23;;;;;;;7.85;100.00;101170.13;5096427;28;20032;-85
2022/05/25 02:59:16;;;;;;;20.13;9.53;;;;;;;7.79;100.00;101157.34;5096719;28;20376;-85
2022/05/25 03:01:42;;;;;;;16.50;8.75;;;;;;;7.84;100.00;101168.44;5078359;28;20074;-85
2022/05/25 03:04:08;;;;;;;15.87;9.83;;;;;;;7.78;100.00;101154.84;5095384;28;20036;-86
2022/05/25 03:06:33;;;;;;;18.27;8.85;;;;;;;7.86;100.00;101179.88;5094548;28;20032;-86
2022/05/25 03:08:59;;;;;;;13.13;8.73;;;;;;;7.79;100.00;101161.91;5078260;28;20029;-85
2022/05/25 03:11:25;;;;;;;13.38;8.30;;;;;;;7.81;100.00;101171.50;5096338;28;20384;-85
2022/05/25 03:13:51;;;;;;;12.70;8.07;;;;;;;7.75;100.00;101169.56;5095412;28;20061;-85
2022/05/25 03:16:20;;;;;;;16.75;8.25;;;;;;;7.76;100.00;101182.03;5096391;28;20108;-86
2022/05/25 03:18:47;;;;;;;14.13;7.88;;;;;;;7.73;100.00;101174.31;5096127;28;20468;-86
2022/05/25 03:21:13;;;;;;;14.63;8.02;;;;;;;7.75;100.00;101188.47;5094774;28;20541;-85
2022/05/25 03:23:38;;;;;;;12.00;7.90;;;;;;;7.68;100.00;101179.47;5095975;28;20036;-86
2022/05/25 03:26:07;;;;;;;13.40;7.57;;;;;;;7.69;100.00;101184.66;5094890;28;20383;-86
2022/05/25 03:28:35;;;;;;;17.17;7.78;;;;;;;7.59;100.00;101173.31;5094973;28;20039;-85
2022/05/25 03:31:01;;;;;;;11.02;8.05;;;;;;;7.56;100.00;101168.28;5094707;28;20036;-85
2022/05/25 03:33:29;;;;;;;18.27;7.67;;;;;;;7.58;100.00;101162.72;5094429;28;20442;-86
2022/05/25 03:35:57;;;;;;;17.25;8.43;;;;;;;7.61;100.00;101171.25;5093657;28;20445;-86
2022/05/25 03:38:31;;;;;;;15.45;7.90;;;;;;;7.65;100.00;101180.66;5094552;28;20024;-86
2022/05/25 03:40:58;;;;;;;13.40;7.60;;;;;;;7.63;100.00;101189.97;5078494;28;20032;-86
2022/05/25 03:43:32;;;;;;;12.03;7.23;;;;;;;7.61;100.00;101192.84;5094419;28;20036;-85
2022/05/25 03:45:59;;;;;;;15.65;7.75;;;;;;;7.61;100.00;101194.72;5094523;28;20050;-86
2022/05/25 03:48:30;;;;;;;13.15;7.95;;;;;;;7.67;100.00;101202.06;5093996;28;20126;-86
2022/05/25 03:50:59;;;;;;;11.85;7.18;;;;;;;7.60;100.00;101195.75;5094566;28;20024;-85
2022/05/25 03:53:24;;;;;;;15.73;7.82;;;;;;;7.64;100.00;101205.16;5094984;28;20122;-85
2022/05/25 03:55:53;;;;;;;16.67;7.77;;;;;;;7.60;100.00;101199.28;5094513;28;20131;-86
2022/05/25 03:58:18;;;;;;;12.32;7.32;;;;;;;7.63;100.00;101204.34;5094184;28;20032;-86
2022/05/25 04:00:44;;;;;;;13.60;7.20;;;;;;;7.62;100.00;101204.50;5093886;28;20035;-86
2022/05/25 04:03:15;;;;;;;12.77;7.57;;;;;;;7.69;100.00;101216.22;5093866;28;20217;-86
2022/05/25 04:05:44;;;;;;;10.17;7.33;;;;;;;7.70;100.00;101217.91;5094770;28;20024;-86
2022/05/25 04:08:14;;;;;;;14.13;7.82;;;;;;;7.63;100.00;101208.88;5093434;28;20047;-85
2022/05/25 04:10:42;;;;;;;14.65;8.15;;;;;;;7.75;100.00;101228.16;5093781;28;20114;-85
2022/05/25 04:13:08;;;;;;;13.27;7.65;;;;;;;7.69;100.00;101217.06;5095083;28;20028;-86
2022/05/25 04:15:34;;;;;;;14.20;7.23;;;;;;;7.65;100.00;101210.38;5093639;28;20069;-85
2022/05/25 04:18:00;;;;;;;14.23;7.43;;;;;;;7.67;100.00;101215.59;5094891;28;20032;-86
2022/05/25 04:20:27;;;;;;;10.73;6.65;;;;;;;7.70;100.00;101220.59;5093445;28;20020;-86
2022/05/25 04:23:00;;;;;;;13.77;7.00;;;;;;;7.72;100.00;101218.53;5094839;28;20028;-85
2022/05/25 04:25:27;;;;;;;13.90;7.00;;;;;;;7.73;100.00;101210.25;5076908;28;20173;-85
2022/05/25 04:28:02;;;;;;;12.55;6.97;;;;;;;7.76;100.00;101221.72;5093589;28;20391;-85
2022/05/25 04:30:31;;;;;;;12.10;6.65;;;;;;;7.80;100.00;101212.22;5093554;28;20093;-86
2022/05/25 04:33:07;;;;;;;15.88;7.22;;;;;;;7.91;100.00;101233.34;5093503;28;20024;-86
2022/05/25 04:35:35;;;;;;;11.25;6.68;;;;;;;7.86;100.00;101219.56;5093356;28;20080;-86
2022/05/25 04:38:06;;;;;;;10.77;6.30;;;;;;;7.92;100.00;101228.78;5093527;28;20486;-86
2022/05/25 04:40:47;;;;;;;11.40;6.53;;;;;;;7.97;100.00;101229.06;5094732;28;20069;-86
2022/05/25 04:43:21;;;;;;;12.95;6.60;;;;;;;7.95;100.00;101225.72;5093219;28;20472;-86
2022/05/25 04:45:51;;;;;;;11.95;6.43;;;;;;;7.98;100.00;101219.94;5093465;28;20469;-85
2022/05/25 04:48:20;;;;;;;11.52;6.10;;;;;;;8.04;100.00;101225.41;5094445;28;20028;-86
2022/05/25 04:50:47;;;;;;;11.57;6.00;;;;;;;8.09;100.00;101232.97;5094363;28;20028;-86
2022/05/25 04:53:19;;;;;;;13.55;6.25;;;;;;;8.13;100.00;101228.81;5094214;28;20467;-86
2022/05/25 04:58:40;;;;;;;10.50;5.72;;;;;;;8.34;100.00;101243.41;5093477;28;20047;-86
2022/05/25 05:01:14;;;;;;;11.20;5.93;;;;;;;8.33;100.00;101241.75;5093641;28;20437;-86
2022/05/25 05:03:41;;;;;;;11.77;6.07;;;;;;;8.42;100.00;101248.72;5077182;28;20078;-86
2022/05/25 05:06:08;;;;;;;10.85;6.03;;;;;;;8.41;100.00;101245.19;5093802;28;20031;-86
2022/05/25 05:08:37;;;;;;;13.25;5.88;;;;;;;8.47;100.00;101234.66;5092378;28;20028;-86
2022/05/25 05:11:15;;;;;;;11.35;5.90;;;;;;;8.59;100.00;101241.22;5094751;28;20129;-86
2022/05/25 05:13:44;;;;;;;12.25;5.28;;;;;;;8.68;100.00;101250.91;5092079;28;20043;-86
2022/05/25 05:16:40;;;;;;;;;;;;;;;;;;;;;
2022/05/25 05:19:08;;;;;;;14.02;6.05;;;;;;;8.89;100.00;101241.94;5093781;28;20093;-89
2022/05/25 05:24:30;;;;;;;10.15;5.40;;;;;;;9.15;100.00;101236.94;5078501;28;20040;-87
2022/05/25 05:27:08;;;;;;;12.48;5.57;;;;;;;9.25;100.00;101245.53;5092434;28;20060;-89
2022/05/25 05:29:34;;;;;;;10.67;5.93;;;;;;;9.37;100.00;101243.13;5094170;28;20032;-87
2022/05/25 05:32:05;;;;;;;10.75;5.13;;;;;;;9.47;100.00;101232.78;5093606;28;20099;-87
2022/05/25 05:34:34;;;;;;;10.20;4.43;;;;;;;9.55;100.00;101223.66;5092695;28;20024;-88
2022/05/25 05:37:12;;;;;;;18.92;5.60;;;;;;;9.60;100.00;101234.75;5093175;28;20052;-88
2022/05/25 05:39:47;;;;;;;16.60;5.47;;;;;;;9.76;100.00;101245.25;5093613;28;20107;-87
2022/05/25 05:42:18;;;;;;;14.40;5.13;;;;;;;9.77;99.41;101227.97;5092603;28;20482;-88
2022/05/25 05:45:23;;;;;;;9.27;5.43;;;;;;;9.87;99.42;101233.00;5092507;28;20024;-88
2022/05/25 05:48:11;;;;;;;10.10;4.90;;;;;;;9.86;98.83;101219.66;5022372;28;20051;-89
2022/05/25 05:50:40;;;;;;;10.80;5.38;;;;;;;9.91;98.58;101225.31;5093883;28;20046;-88
2022/05/25 05:53:19;;;;;;;15.45;5.20;;;;;;;10.06;98.07;101227.88;5093552;28;20030;-88
2022/05/25 05:55:46;;;;;;;10.10;5.03;;;;;;;10.01;97.57;101221.19;5092245;28;20039;-88
2022/05/25 05:58:14;;;;;;;9.35;5.30;;;;;;;10.06;97.86;101222.47;5091996;28;20028;-88
2022/05/25 06:00:48;;;;;;;14.93;5.32;;;;;;;10.12;97.76;101232.47;5092469;28;20051;-88
2022/05/25 06:03:19;;;;;;;9.18;4.82;;;;;;;10.20;97.17;101224.16;5093476;28;20032;-88
2022/05/25 06:05:47;;;;;;;11.60;4.95;;;;;;;10.26;96.84;101234.22;5091382;28;20062;-89
2022/05/25 06:08:19;;;;;;;16.53;6.33;;;;;;;10.29;96.04;101244.66;5092114;28;20399;-88
2022/05/25 06:10:45;;;;;;;12.25;5.53;;;;;;;10.30;96.26;101237.34;5091886;28;20032;-88
2022/05/25 06:13:20;;;;;;;12.45;5.40;;;;;;;10.39;96.19;101244.28;5094714;28;20035;-89
2022/05/25 06:21:35;;;;;;;;;;;;;;;;;;;;;
2022/05/25 06:24:08;;;;;;;12.10;4.75;;;;;;;10.80;94.56;101280.47;5097102;28;20124;-84
2022/05/25 06:27:04;;;;;;;11.93;4.72;;;;;;;10.79;93.84;101257.09;5097297;28;20089;-90
2022/05/25 06:29:53;;;;;;;13.07;5.20;;;;;;;11.03;93.77;101274.66;5095716;28;20487;-91
2022/05/25 06:32:30;;;;;;;12.63;5.47;;;;;;;11.23;92.00;101282.81;5079264;28;20055;-91
2022/05/25 06:38:03;;;;;;;14.18;5.95;;;;;;;11.61;90.27;101265.03;5095272;28;20044;-92
2022/05/25 06:41:12;;;;;;;;;;;;;;;;;;;;;
2022/05/25 06:47:32;;;;;;;;;;;;;;;;;;;;;
2022/05/25 06:50:12;;;;;;;19.35;11.15;;;;;;;12.15;86.82;101287.47;5095392;28;20032;-88
2022/05/25 06:52:40;;;;;;;16.20;9.07;;;;;;;12.24;86.74;101295.19;5094608;28;20060;-87
2022/05/25 06:55:11;;;;;;;13.10;7.97;;;;;;;12.35;86.69;101290.94;5095124;28;20114;-88
2022/05/25 06:57:42;;;;;;;13.02;8.75;;;;;;;12.45;84.96;101285.88;5094866;28;20020;-87
2022/05/25 07:00:09;;;;;;;13.70;7.87;;;;;;;12.40;84.52;101280.25;5078654;28;20036;-87
2022/05/25 07:02:44;;;;;;;18.83;8.70;;;;;;;12.36;85.03;101297.25;5096312;28;20036;-87
2022/05/25 07:05:37;;;;;;;12.40;8.32;;;;;;;12.19;85.07;101297.69;5079229;28;20040;-87
2022/05/25 07:08:03;;;;;;;18.05;8.93;;;;;;;12.18;84.85;101287.03;5081197;28;20471;-87
2022/05/25 07:10:46;;;;;;;13.95;7.80;;;;;;;12.21;85.56;101292.03;5095029;28;20032;-87
2022/05/25 07:13:25;;;;;;;17.40;8.87;;;;;;;12.27;84.84;101293.94;5095141;28;20055;-88
2022/05/25 07:15:58;;;;;;;21.20;8.55;;;;;;;12.36;84.52;101308.13;5077788;28;20039;-87
2022/05/25 07:18:27;;;;;;;12.95;8.52;;;;;;;12.26;84.77;101309.41;5094701;28;20031;-87
2022/05/25 07:21:18;;;;;;;18.83;9.43;;;;;;;12.23;84.36;101309.00;5094586;28;20089;-87
2022/05/25 07:23:51;;;;;;;14.80;8.07;;;;;;;12.30;84.01;101315.25;5094088;28;20028;-87
2022/05/25 07:26:17;;;;;;;16.87;8.93;;;;;;;12.38;84.51;101315.00;5096409;28;20024;-87
2022/05/25 07:28:43;;;;;;;12.20;9.38;;;;;;;12.43;83.82;101311.63;5094632;28;20070;-87
2022/05/25 07:31:24;;;;;;;13.77;9.02;;;;;;;12.50;84.19;101326.03;5094677;28;20039;-87
2022/05/25 07:34:02;;;;;;;18.42;9.73;;;;;;;12.46;83.95;101314.75;5077947;28;20072;-87
2022/05/25 07:36:33;;;;;;;13.18;8.70;;;;;;;12.51;83.20;101338.59;5093540;28;20388;-89
2022/05/25 07:39:04;;;;;;;11.87;8.23;;;;;;;12.42;84.36;101329.03;5095966;28;20027;-84
2022/05/25 07:41:46;;;;;;;60.35;10.55;;;;;;;12.45;83.86;101315.81;5094615;28;20062;-91
2022/05/25 07:44:16;;;;;;;12.95;7.40;;;;;;;12.45;83.46;101323.97;5095607;27;20117;-84
2022/05/25 07:46:42;;;;;;;13.70;7.88;;;;;;;12.46;82.43;101331.09;5114241;28;20108;-84
2022/05/25 07:49:08;;;;;;;14.23;8.63;;;;;;;12.40;82.84;101321.06;5114703;28;20416;-84
2022/05/25 07:51:33;;;;;;;12.80;7.17;;;;;;;12.62;83.70;101335.22;5114329;28;20124;-84
2022/05/25 07:54:00;;;;;;;10.20;6.70;;;;;;;12.82;82.98;101335.09;5114635;28;20024;-84
2022/05/25 07:56:35;;;;;;;11.27;7.22;;;;;;;13.01;82.57;101337.91;5097428;28;20077;-83
2022/05/25 07:59:12;;;;;;;14.57;7.70;;;;;;;13.08;82.76;101322.38;5114465;28;20035;-83
2022/05/25 08:07:21;;;;;;;9.70;5.93;;;;;;;13.11;80.12;101340.13;5114243;28;20038;-84
2022/05/25 08:09:54;;;;;;;8.57;5.22;;;;;;;13.09;80.40;101339.53;5113990;28;20027;-84
2022/05/25 08:12:21;;;;;;;10.43;5.40;;;;;;;12.97;81.00;101323.88;5114451;28;20028;-84
2022/05/25 08:14:48;;;;;;;9.95;5.63;;;;;;;13.10;80.79;101331.13;5114242;28;20039;-84
2022/05/25 08:17:13;;;;;;;9.95;5.20;;;;;;;13.30;80.36;101331.00;5113873;28;20509;-84
2022/05/25 08:19:39;;;;;;;11.80;5.33;;;;;;;13.38;80.15;101343.53;5113187;28;20146;-84
2022/05/25 08:22:09;;;;;;;10.93;5.00;;;;;;;13.39;81.38;101328.88;5113905;28;20032;-85
2022/05/25 08:24:37;;;;;;;11.47;5.10;;;;;;;13.59;79.85;101328.69;5115565;28;20474;-84
2022/05/25 08:27:11;;;;;;;7.72;5.20;;;;;;;13.67;77.93;101336.59;5096908;28;20130;-84
2022/05/25 08:29:42;;;;;;;8.05;4.35;;;;;;;13.65;78.79;101322.31;5098344;28;20044;-84
2022/05/25 08:32:10;;;;;;;10.38;4.65;;;;;;;13.83;78.59;101326.13;5113612;28;20027;-84
2022/05/25 08:34:53;;;;;;;8.80;4.25;;;;;;;13.94;78.57;101321.84;5114528;27;20114;-85
2022/05/25 08:37:20;;;;;;;7.13;4.07;;;;;;;14.04;75.65;101313.97;5112984;28;20079;-84
2022/05/25 08:39:48;;;;;;;7.78;4.20;;;;;;;14.08;75.94;101317.91;5113214;28;20035;-85
2022/05/25 08:42:20;;;;;;;7.07;4.30;;;;;;;14.29;75.19;101327.53;5114949;28;20028;-84
2022/05/25 08:44:49;;;;;;;7.32;3.97;;;;;;;14.33;74.96;101331.44;5113262;28;20046;-84
2022/05/25 08:47:32;;;;;;;;;;;;;;;;;;;;;
2022/05/25 08:50:05;;;;;;;7.77;3.57;;;;;;;14.56;72.60;101322.56;5114232;28;20046;-84
2022/05/25 08:52:39;;;;;;;11.60;4.35;;;;;;;14.63;72.63;101318.94;5113473;28;20023;-84
2022/05/25 08:55:10;;;;;;;4.82;3.03;;;;;;;14.62;71.61;101314.56;5114595;28;20073;-85
2022/05/25 08:57:56;;;;;;;7.38;3.05;;;;;;;14.83;71.40;101307.75;5113163;28;20028;-84
2022/05/25 09:00:23;;;;;;;5.78;2.90;;;;;;;14.89;68.71;101325.94;5113377;28;20027;-84
2022/05/25 09:03:17;;;;;;;5.87;2.50;;;;;;;15.01;67.39;101317.75;5096695;28;20126;-84
2022/05/25 09:05:52;;;;;;;5.57;2.47;;;;;;;15.08;67.22;101348.56;5103073;28;20051;-84
2022/05/25 09:08:41;;;;;;;6.90;2.20;;;;;;;15.08;66.89;101322.06;5112573;28;20126;-84
2022/05/25 09:11:23;;;;;;;4.80;2.35;;;;;;;15.29;66.11;101314.38;5113168;28;20441;-84
2022/05/25 09:13:51;;;;;;;3.22;1.98;;;;;;;15.67;63.52;101336.88;5109396;28;20104;-84
2022/05/25 09:16:27;;;;;;;2.80;2.07;;;;;;;15.77;63.48;101321.53;5114167;28;20130;-84
2022/05/25 09:19:10;;;;;;;7.82;1.90;;;;;;;16.16;61.49;101333.91;5113171;28;20028;-84
2022/05/25 09:21:47;;;;;;;6.22;1.52;;;;;;;16.21;60.18;101323.91;5112934;28;20367;-84
2022/05/25 09:24:17;;;;;;;7.60;1.55;;;;;;;16.35;59.94;101324.44;5112993;28;20027;-84
2022/05/25 09:26:51;;;;;;;3.63;1.45;;;;;;;16.52;59.57;101329.16;5112844;28;20055;-84
2022/05/25 09:29:19;;;;;;;5.67;1.40;;;;;;;16.57;58.84;101323.78;5112905;28;20051;-84
2022/05/25 09:31:55;;;;;;;3.53;1.45;;;;;;;16.63;57.70;101348.28;5112780;28;20535;-84
2022/05/25 09:34:50;;;;;;;5.13;1.50;;;;;;;16.61;58.37;101339.50;5112315;28;20495;-84
2022/05/25 09:37:46;;;;;;;3.60;1.10;;;;;;;16.84;58.22;101334.97;5111868;28;20494;-86
2022/05/25 09:40:24;;;;;;;3.08;1.10;;;;;;;16.64;54.14;101336.25;5076771;28;20491;-85
2022/05/25 09:43:01;;;;;;;4.93;1.00;;;;;;;16.40;53.80;101341.00;5112832;28;20028;-85
2022/05/25 09:45:56;;;;;;;3.83;1.08;;;;;;;16.39;54.91;101327.53;5112663;28;20114;-87
2022/05/25 09:48:26;;;;;;;3.00;1.00;;;;;;;16.74;55.31;101340.25;5111598;28;20042;-84
2022/05/25 09:50:55;;;;;;;3.28;0.90;;;;;;;16.92;53.23;101334.63;5112114;28;20573;-87
2022/05/25 09:53:29;;;;;;;3.17;0.90;;;;;;;16.96;53.26;101324.84;5112507;28;20031;-92
2022/05/25 09:56:09;;;;;;;3.53;1.00;;;;;;;17.12;54.02;101325.09;5113526;28;20123;-84
2022/05/25 09:58:43;;;;;;;2.75;0.82;;;;;;;17.70;53.30;101332.06;5112701;28;20057;-83
2022/05/25 10:01:32;;;;;;;2.10;0.85;;;;;;;18.19;51.53;101352.56;5112614;28;20028;-83
2022/05/25 10:04:00;;;;;;;7.53;1.10;;;;;;;17.99;50.95;101348.44;5112446;28;20399;-83
2022/05/25 10:06:32;;;;;;;5.60;1.15;;;;;;;18.02;51.28;101360.81;5111749;28;20039;-84
2022/05/25 10:09:21;;;;;;;5.67;0.90;;;;;;;18.24;51.44;101363.59;5112195;28;20413;-84
2022/05/25 10:11:56;;;;;;;3.63;1.00;;;;;;;18.18;50.12;101365.44;5111986;28;20015;-84
2022/05/25 10:14:37;;;;;;;5.45;1.30;;;;;;;17.98;50.86;101355.03;5112687;28;20035;-84
2022/05/25 10:17:14;;;;;;;4.15;1.00;;;;;;;17.94;49.23;101347.53;5113117;28;20023;-85
2022/05/25 10:19:49;;;;;;;4.07;0.95;;;;;;;17.93;48.05;101345.88;5112343;28;20030;-85
2022/05/25 10:22:41;;;;;;;1.67;0.90;;;;;;;17.94;49.18;101362.09;5112288;28;20450;-84
2022/05/25 10:25:18;;;;;;;3.10;0.90;;;;;;;17.82;48.76;101355.81;5112159;28;20446;-85
2022/05/25 10:27:47;;;;;;;4.88;0.90;;;;;;;17.98;48.82;101356.91;5113433;28;20123;-86
2022/05/25 10:39:21;;;;;;;1.45;0.80;;;;;;;17.93;46.47;101338.47;5107823;28;20047;-85
2022/05/25 10:42:19;;;;;;;1.63;0.90;;;;;;;17.71;47.52;101339.22;5113311;28;20031;-85
2022/05/25 10:45:07;;;;;;;1.42;0.80;;;;;;;17.53;47.93;101342.22;5112448;28;20471;-85
2022/05/25 10:47:57;;;;;;;1.33;0.70;;;;;;;17.31;48.84;101340.22;5120174;28;20110;-85
2022/05/25 10:50:35;;;;;;;2.30;0.90;;;;;;;17.42;48.22;101340.41;5118342;28;20024;-85
2022/05/25 10:53:25;;;;;;;6.82;0.98;;;;;;;17.95;48.78;101347.28;5108409;28;20128;-85
2022/05/25 10:56:11;;;;;;;2.88;0.93;;;;;;;18.38;48.44;101333.81;5091311;28;20040;-85
2022/05/25 10:59:00;;;;;;;3.42;1.00;;;;;;;18.17;47.47;101327.25;5092185;28;20065;-85
2022/05/25 11:01:57;;;;;;;4.03;1.20;;;;;;;17.78;47.54;101335.47;5094755;28;20120;-85
2022/05/25 11:04:52;;;;;;;3.00;1.00;;;;;;;17.80;49.09;101336.88;5091399;28;20043;-85
2022/05/25 11:07:52;;;;;;;1.77;1.10;;;;;;;17.60;48.80;101334.66;5094383;28;20024;-85
2022/05/25 11:10:48;;;;;;;3.42;1.13;;;;;;;17.69;50.22;101349.63;5084746;28;20040;-84
2022/05/25 11:13:38;;;;;;;1.50;0.68;;;;;;;18.39;49.54;101349.22;5094830;28;20082;-85
2022/05/25 11:16:40;;;;;;;4.57;1.10;;;;;;;19.23;47.34;101341.63;5095002;28;20024;-84
2022/05/25 11:19:18;;;;;;;2.27;0.70;;;;;;;18.90;45.83;101332.53;5094799;28;20097;-84
2022/05/25 11:21:58;;;;;;;4.97;0.80;;;;;;;20.70;40.12;101330.09;5100119;28;20039;-85
2022/05/25 11:24:26;;;;;;;3.28;0.80;;;;;;;22.77;37.29;101332.28;5114926;28;20031;-84
2022/05/25 11:27:10;;;;;;;6.47;0.98;;;;;;;24.69;33.14;101319.88;5114998;28;20122;-84
2022/05/25 11:30:19;;;;;;;7.45;0.98;;;;;;;25.27;31.81;101333.69;5115128;28;20102;-84
2022/05/25 11:33:14;;;;;;;6.70;0.87;;;;;;;25.54;32.95;101319.09;5069948;28;20042;-84
2022/05/25 11:36:14;;;;;;;4.10;0.80;;;;;;;25.41;31.36;101322.66;5115927;28;20044;-84
2022/05/25 11:38:46;;;;;;;4.38;0.90;;;;;;;26.02;30.68;101312.38;5114989;28;20441;-84
2022/05/25 11:41:45;;;;;;;5.20;1.25;;;;;;;25.51;31.04;101306.66;5116305;28;20479;-84
2022/05/25 11:44:31;;;;;;;3.22;1.00;;;;;;;24.43;33.30;101305.50;5114809;28;20024;-84
2022/05/25 11:47:44;;;;;;;2.27;0.90;;;;;;;22.94;35.66;101299.53;5114963;28;20501;-84
2022/05/25 11:50:41;;;;;;;4.03;1.40;;;;;;;21.44;38.36;101308.69;5052849;28;20035;-84
2022/05/25 11:53:36;;;;;;;5.20;1.25;;;;;;;22.09;38.02;101300.53;5114627;28;20023;-84
2022/05/25 11:56:41;;;;;;;8.77;1.00;;;;;;;23.32;36.94;101314.75;5114331;28;20383;-84
2022/05/25 11:59:13;;;;;;;3.78;1.20;;;;;;;22.36;36.95;101310.41;5032772;28;20087;-84
2022/05/25 12:02:00;;;;;;;3.90;1.10;;;;;;;21.33;38.69;101305.91;5016465;28;20034;-84
2022/05/25 12:04:29;;;;;;;2.35;0.98;;;;;;;20.80;38.16;101316.34;5079590;28;20031;-84
2022/05/25 12:07:31;;;;;;;3.78;1.00;;;;;;;21.85;38.13;101316.88;5113916;28;20036;-84
2022/05/25 12:10:06;;;;;;;2.55;0.93;;;;;;;23.86;34.63;101312.84;5114178;28;20020;-84
2022/05/25 12:12:54;;;;;;;4.10;1.42;;;;;;;24.84;33.80;101281.94;5115491;28;20023;-84
2022/05/25 12:15:25;;;;;;;2.70;1.20;;;;;;;23.30;33.44;101320.59;5114081;28;20030;-84
2022/05/25 12:17:59;;;;;;;2.95;1.10;;;;;;;21.98;35.89;101307.19;5115454;28;20502;-84
2022/05/25 12:20:49;;;;;;;2.33;1.05;;;;;;;20.72;38.69;101314.97;5114126;28;20062;-84
2022/05/25 12:23:59;;;;;;;3.75;0.90;;;;;;;19.62;38.29;101319.34;5098894;28;20085;-83
2022/05/25 12:26:38;;;;;;;3.22;1.00;;;;;;;18.74;39.88;101310.34;5106535;28;20118;-84
2022/05/25 12:29:13;;;;;;;5.27;0.70;;;;;;;18.64;41.21;101325.91;5113792;28;20126;-84
2022/05/25 12:31:40;;;;;;;3.33;0.75;;;;;;;18.91;40.64;101317.66;5114877;28;20023;-83
2022/05/25 12:34:05;;;;;;;4.07;1.00;;;;;;;18.69;41.11;101315.78;5113592;28;20493;-83
2022/05/25 12:37:01;;;;;;;4.43;1.02;;;;;;;18.81;42.20;101329.38;5112965;28;20142;-84
2022/05/25 12:39:45;;;;;;;2.30;0.80;;;;;;;18.61;43.16;101321.75;5104944;28;20377;-84
2022/05/25 12:42:32;;;;;;;2.63;1.13;;;;;;;18.50;42.98;101319.94;5114639;28;20023;-84